createdAt,value
2017-11-11T00:01:42.544Z,5.30
2017-11-11T00:07:46.810Z,5.36
2017-11-11T00:13:50.289Z,5.39
2017-11-11T00:19:53.775Z,5.27
2017-11-11T00:25:57.276Z,5.22
2017-11-11T00:32:01.453Z,5.29
2017-11-11T00:38:04.934Z,5.29
2017-11-11T00:44:08.724Z,5.32
2017-11-11T00:50:12.190Z,5.32
2017-11-11T00:56:15.694Z,5.37
2017-11-11T01:02:19.179Z,5.39
2017-11-11T01:08:22.673Z,5.43
2017-11-11T01:14:27.285Z,5.52
2017-11-11T01:20:31.552Z,5.52
2017-11-11T01:26:35.045Z,5.58
2017-11-11T01:32:38.542Z,5.57
2017-11-11T01:38:42.045Z,5.64
2017-11-11T01:44:46.296Z,5.67
2017-11-11T01:50:49.804Z,5.68
2017-11-11T01:56:53.305Z,5.68
2017-11-11T02:02:57.374Z,5.68
2017-11-11T02:09:01.147Z,5.65
2017-11-11T02:15:04.867Z,5.63
2017-11-11T02:21:08.471Z,5.62
2017-11-11T02:27:12.910Z,5.55
2017-11-11T02:33:16.477Z,5.51
2017-11-11T02:39:20.031Z,5.49
2017-11-11T02:45:24.366Z,5.52
2017-11-11T02:51:28.082Z,5.50
2017-11-11T02:57:32.792Z,5.42
2017-11-11T03:03:37.400Z,5.40
2017-11-11T03:09:41.615Z,5.39
2017-11-11T03:15:46.170Z,5.38
2017-11-11T03:21:50.134Z,5.35
2017-11-11T03:27:54.486Z,5.30
2017-11-11T03:33:58.114Z,5.30
2017-11-11T03:40:03.454Z,5.32
2017-11-11T03:46:07.070Z,5.33
2017-11-11T03:52:11.499Z,5.34
2017-11-11T03:58:15.928Z,5.34
2017-11-11T04:04:19.952Z,5.27
2017-11-11T04:10:24.475Z,5.21
2017-11-11T04:16:28.127Z,5.22
2017-11-11T04:22:32.160Z,5.22
2017-11-11T04:28:36.220Z,5.27
2017-11-11T04:34:39.796Z,5.23
2017-11-11T04:40:44.346Z,5.21
2017-11-11T04:46:48.042Z,5.17
2017-11-11T04:52:52.451Z,4.86
2017-11-11T04:58:57.740Z,4.62
2017-11-11T05:05:01.791Z,4.46
2017-11-11T05:11:05.795Z,4.45
2017-11-11T05:17:10.524Z,4.51
2017-11-11T05:23:15.992Z,4.51
2017-11-11T05:29:19.942Z,4.58
2017-11-11T05:35:26.869Z,4.58
2017-11-11T05:41:31.867Z,4.66
2017-11-11T05:47:35.472Z,4.84
2017-11-11T05:53:39.834Z,4.96
2017-11-11T05:59:43.811Z,5.03
2017-11-11T06:05:47.426Z,5.01
2017-11-11T06:11:51.294Z,5.02
2017-11-11T06:17:56.539Z,5.00
2017-11-11T06:24:00.529Z,4.94
2017-11-11T06:30:04.099Z,4.88
2017-11-11T06:36:08.488Z,4.86
2017-11-11T06:42:12.072Z,4.89
2017-11-11T06:48:15.899Z,4.91
2017-11-11T06:54:20.535Z,4.96
2017-11-11T07:00:25.817Z,4.99
2017-11-11T07:06:29.889Z,5.03
2017-11-11T07:12:35.177Z,5.26
2017-11-11T07:18:39.166Z,5.34
2017-11-11T07:24:44.235Z,5.36
2017-11-11T07:30:48.145Z,5.26
2017-11-11T07:36:51.938Z,5.23
2017-11-11T07:42:55.901Z,5.27
2017-11-11T07:49:01.235Z,5.33
2017-11-11T07:55:07.356Z,5.32
2017-11-11T08:01:11.472Z,5.42
2017-11-11T08:07:17.356Z,5.64
2017-11-11T08:29:41.261Z,5.46
2017-11-11T08:35:44.768Z,5.41
2017-11-11T08:41:48.286Z,5.42
2017-11-11T08:47:51.891Z,5.40
2017-11-11T08:53:55.434Z,5.41
2017-11-11T08:59:58.987Z,5.44
2017-11-11T09:06:02.827Z,5.46
2017-11-11T09:12:06.352Z,5.49
2017-11-11T09:18:09.851Z,5.57
2017-11-11T09:24:13.370Z,5.59
2017-11-11T09:30:16.859Z,5.60
2017-11-11T09:36:20.374Z,5.60
2017-11-11T09:42:24.630Z,5.65
2017-11-11T09:48:28.163Z,5.32
2017-11-11T09:54:32.309Z,4.33
2017-11-11T10:00:35.814Z,4.02
2017-11-11T10:06:39.332Z,4.13
2017-11-11T10:12:43.054Z,4.62
2017-11-11T10:18:46.584Z,5.17
2017-11-11T10:24:50.911Z,5.42
2017-11-11T10:30:54.439Z,5.51
2017-11-11T10:36:57.942Z,5.55
2017-11-11T10:43:01.476Z,5.65
2017-11-11T10:49:05.752Z,5.59
2017-11-11T10:55:10.034Z,5.57
2017-11-11T11:01:13.548Z,5.74
2017-11-11T11:07:17.107Z,5.83
2017-11-11T11:13:20.603Z,5.77
2017-11-11T11:19:24.107Z,5.73
2017-11-11T11:25:27.611Z,5.74
2017-11-11T11:31:32.071Z,5.75
2017-11-11T11:37:35.590Z,5.85
2017-11-11T11:43:39.866Z,5.93
2017-11-11T11:49:43.378Z,5.97
2017-11-11T11:55:47.649Z,6.03
2017-11-11T12:01:51.156Z,6.09
2017-11-11T12:07:54.661Z,6.13
2017-11-11T12:13:58.965Z,6.29
2017-11-11T12:20:03.289Z,6.27
2017-11-11T12:26:06.812Z,6.28
2017-11-11T12:32:10.359Z,6.26
2017-11-11T12:38:13.879Z,6.29
2017-11-11T12:44:17.426Z,6.36
2017-11-11T12:50:20.944Z,6.34
2017-11-11T12:56:24.454Z,6.38
2017-11-11T13:02:27.977Z,6.38
2017-11-11T13:08:31.571Z,6.38
2017-11-11T13:14:35.135Z,6.43
2017-11-11T13:20:39.423Z,6.47
2017-11-11T13:26:42.922Z,6.44
2017-11-11T13:32:47.214Z,6.47
2017-11-11T13:38:51.494Z,6.52
2017-11-11T13:44:55.011Z,6.65
2017-11-11T13:50:59.449Z,6.61
2017-11-11T13:57:02.994Z,6.55
2017-11-11T14:03:07.282Z,6.51
2017-11-11T14:09:11.093Z,6.44
2017-11-11T14:15:15.427Z,6.45
2017-11-11T14:21:18.950Z,6.52
2017-11-11T14:27:23.625Z,6.50
2017-11-11T14:33:27.137Z,6.43
2017-11-11T14:39:30.996Z,6.31
2017-11-11T14:45:34.508Z,6.29
2017-11-11T14:51:38.350Z,6.26
2017-11-11T14:57:42.620Z,6.25
2017-11-11T15:03:46.155Z,6.16
2017-11-11T15:09:49.682Z,6.13
2017-11-11T15:15:53.523Z,6.09
2017-11-11T15:21:57.793Z,6.05
2017-11-11T15:28:01.272Z,6.03
2017-11-11T15:34:05.174Z,6.04
2017-11-11T15:40:08.660Z,6.06
2017-11-11T15:46:13.037Z,6.06
2017-11-11T15:52:17.349Z,6.04
2017-11-11T15:58:20.858Z,6.03
2017-11-11T16:04:24.285Z,6.04
2017-11-11T16:10:28.005Z,6.01
2017-11-11T16:16:31.548Z,6.01
2017-11-11T16:22:35.016Z,6.00
2017-11-11T16:28:38.469Z,5.99
2017-11-11T16:34:41.943Z,6.00
2017-11-11T16:40:45.443Z,5.93
2017-11-11T16:46:49.009Z,5.87
2017-11-11T16:52:52.462Z,5.71
2017-11-11T16:58:55.928Z,5.41
2017-11-11T17:05:00.324Z,5.32
2017-11-11T17:11:03.787Z,5.34
2017-11-11T17:17:07.647Z,5.28
2017-11-11T17:23:11.078Z,5.12
2017-11-11T17:29:16.691Z,5.02
2017-11-11T17:35:20.408Z,4.96
2017-11-11T17:41:25.014Z,4.93
2017-11-11T18:03:38.521Z,4.60
2017-11-11T18:09:42.817Z,4.50
2017-11-11T18:15:46.811Z,4.38
2017-11-11T18:21:50.880Z,4.24
2017-11-11T18:27:54.400Z,4.01
2017-11-11T18:34:04.135Z,3.89
2017-11-11T18:59:37.801Z,4.15
2017-11-11T19:05:41.403Z,4.31
2017-11-11T19:27:59.940Z,4.87
2017-11-11T19:34:03.466Z,4.90
2017-11-11T19:40:06.982Z,4.93
2017-11-11T19:46:10.512Z,4.96
2017-11-11T19:52:14.290Z,5.00
2017-11-11T19:58:18.645Z,5.05
2017-11-11T20:04:23.550Z,4.94
2017-11-11T20:10:28.059Z,4.93
2017-11-11T20:16:31.616Z,4.84
2017-11-11T20:22:36.402Z,4.76
2017-11-11T20:28:39.922Z,4.75
2017-11-11T20:34:45.652Z,4.73
2017-11-11T20:40:49.478Z,4.82
2017-11-11T20:59:53.084Z,5.05
2017-11-11T21:05:56.631Z,5.17
2017-11-11T21:12:00.911Z,5.24
2017-11-11T21:18:05.661Z,5.30
2017-11-11T21:24:09.125Z,5.30
2017-11-11T21:30:12.671Z,5.25
2017-11-11T21:36:16.212Z,5.35
2017-11-11T21:42:19.999Z,5.30
2017-11-11T21:48:24.499Z,5.30
2017-11-11T21:54:28.099Z,5.30
2017-11-11T22:00:31.962Z,5.30
2017-11-11T22:06:35.487Z,5.29
2017-11-11T22:12:39.801Z,5.28
2017-11-11T22:18:43.333Z,5.20
2017-11-11T22:24:46.966Z,5.04
2017-11-11T22:30:50.552Z,5.05
2017-11-11T22:36:54.110Z,5.03
2017-11-11T22:42:57.648Z,4.95
2017-11-11T22:49:01.156Z,4.96
2017-11-11T22:55:04.727Z,5.04
2017-11-11T23:01:08.454Z,4.94
2017-11-11T23:20:12.108Z,4.65
2017-11-11T23:26:16.644Z,4.55
2017-11-11T23:32:20.224Z,4.48
2017-11-11T23:38:24.830Z,4.39
2017-11-11T23:44:28.402Z,4.53
2017-11-11T23:50:32.047Z,4.76
2017-11-11T23:56:35.611Z,4.92
